createdAt,value
2017-12-27T00:01:05.670Z,4.27
2017-12-27T00:03:39.592Z,3.60
2017-12-27T00:06:13.577Z,4.30
2017-12-27T00:08:47.369Z,4.80
2017-12-27T00:11:21.341Z,4.00
2017-12-27T00:13:55.162Z,4.37
2017-12-27T00:16:30.144Z,4.07
2017-12-27T00:19:04.068Z,4.33
2017-12-27T00:21:37.909Z,4.63
2017-12-27T00:24:21.973Z,7.30
2017-12-27T00:26:55.911Z,3.67
2017-12-27T00:29:30.626Z,4.37
2017-12-27T00:31:58.597Z,5.03
2017-12-27T00:34:26.833Z,4.63
2017-12-27T00:36:55.069Z,5.50
2017-12-27T00:39:23.335Z,3.90
2017-12-27T00:41:51.579Z,4.97
2017-12-27T00:44:19.818Z,3.77
2017-12-27T00:46:48.305Z,3.93
2017-12-27T00:49:16.547Z,3.90
2017-12-27T00:51:44.782Z,4.90
2017-12-27T00:54:13.954Z,3.87
2017-12-27T00:56:42.190Z,4.47
2017-12-27T00:59:10.442Z,3.97
2017-12-27T01:01:38.710Z,4.00
2017-12-27T01:04:06.942Z,4.43
2017-12-27T01:06:35.190Z,5.60
2017-12-27T01:09:03.454Z,4.33
2017-12-27T01:11:32.901Z,4.63
2017-12-27T01:14:01.134Z,4.60
2017-12-27T01:16:29.582Z,5.07
2017-12-27T01:18:57.837Z,4.30
2017-12-27T01:21:26.081Z,4.67
2017-12-27T01:23:54.342Z,4.50
2017-12-27T01:26:22.583Z,4.37
2017-12-27T01:28:50.831Z,4.80
2017-12-27T01:31:19.100Z,5.27
2017-12-27T01:33:49.544Z,4.73
2017-12-27T01:36:17.778Z,5.10
2017-12-27T01:38:46.443Z,6.30
2017-12-27T01:41:15.458Z,4.17
2017-12-27T01:43:43.703Z,4.87
2017-12-27T01:46:14.846Z,4.70
2017-12-27T01:48:44.035Z,4.17
2017-12-27T01:51:12.270Z,5.53
2017-12-27T01:53:40.543Z,3.67
2017-12-27T01:56:08.783Z,4.53
2017-12-27T01:58:37.790Z,4.00
2017-12-27T02:01:07.019Z,3.90
2017-12-27T02:03:36.215Z,4.37
2017-12-27T02:06:04.455Z,4.07
2017-12-27T02:08:33.947Z,3.53
2017-12-27T02:11:02.954Z,4.17
2017-12-27T02:13:31.967Z,4.97
2017-12-27T02:16:01.242Z,4.20
2017-12-27T02:18:29.482Z,4.07
2017-12-27T02:20:57.717Z,4.27
2017-12-27T02:23:26.114Z,5.97
2017-12-27T02:25:54.612Z,4.93
2017-12-27T02:28:28.663Z,3.90
2017-12-27T02:30:57.674Z,4.13
2017-12-27T02:33:26.678Z,4.03
2017-12-27T02:35:54.946Z,4.83
2017-12-27T02:38:43.761Z,3.97
2017-12-27T02:41:12.107Z,4.27
2017-12-27T02:43:40.357Z,6.37
2017-12-27T02:46:08.796Z,3.83
2017-12-27T02:48:37.057Z,3.93
2017-12-27T02:51:05.460Z,4.10
2017-12-27T02:53:33.710Z,4.20
2017-12-27T02:56:01.979Z,4.80
2017-12-27T02:58:30.221Z,4.93
2017-12-27T03:00:58.464Z,5.27
2017-12-27T03:03:27.838Z,5.10
2017-12-27T03:05:56.083Z,5.03
2017-12-27T03:08:24.326Z,5.00
2017-12-27T03:10:52.598Z,4.70
2017-12-27T03:13:20.834Z,6.73
2017-12-27T03:15:49.082Z,5.40
2017-12-27T03:18:19.282Z,7.47
2017-12-27T03:20:47.526Z,5.67
2017-12-27T03:23:15.766Z,8.17
2017-12-27T03:25:44.233Z,5.67
2017-12-27T03:28:12.478Z,5.80
2017-12-27T03:30:40.723Z,6.53
2017-12-27T03:33:09.002Z,5.80
2017-12-27T03:35:37.242Z,7.50
2017-12-27T03:38:05.486Z,6.93
2017-12-27T03:40:33.783Z,5.60
2017-12-27T03:43:02.803Z,7.10
2017-12-27T03:45:31.047Z,7.23
2017-12-27T03:47:59.900Z,5.03
2017-12-27T03:50:28.130Z,7.33
2017-12-27T03:52:56.657Z,8.20
2017-12-27T03:55:24.927Z,7.87
2017-12-27T03:57:53.169Z,8.03
2017-12-27T04:00:21.410Z,6.23
2017-12-27T04:02:49.684Z,6.63
2017-12-27T04:05:17.993Z,7.40
2017-12-27T04:07:46.267Z,6.83
2017-12-27T04:10:15.438Z,7.10
2017-12-27T04:12:43.689Z,7.47
2017-12-27T04:15:11.934Z,7.10
2017-12-27T04:17:40.186Z,8.27
2017-12-27T04:20:08.454Z,9.67
2017-12-27T04:22:36.819Z,10.80
2017-12-27T04:25:05.086Z,10.57
2017-12-27T04:27:33.349Z,7.50
2017-12-27T04:30:01.594Z,6.83
2017-12-27T04:32:30.113Z,7.97
2017-12-27T04:34:58.358Z,7.40
2017-12-27T04:37:26.603Z,8.30
2017-12-27T04:39:55.639Z,8.47
2017-12-27T04:42:24.040Z,6.80
2017-12-27T04:44:52.258Z,9.57
2017-12-27T04:47:21.298Z,8.13
2017-12-27T04:49:49.541Z,6.60
2017-12-27T04:52:17.783Z,6.83
2017-12-27T04:54:46.449Z,6.53
2017-12-27T04:57:14.711Z,6.83
2017-12-27T04:59:42.946Z,7.30
2017-12-27T05:02:11.998Z,8.43
2017-12-27T05:04:40.231Z,6.00
2017-12-27T05:07:09.484Z,5.70
2017-12-27T05:09:37.887Z,5.00
2017-12-27T05:12:07.816Z,5.87
2017-12-27T05:14:36.822Z,5.83
2017-12-27T05:17:06.158Z,5.50
2017-12-27T05:19:34.397Z,5.33
2017-12-27T05:22:02.639Z,4.43
2017-12-27T05:24:30.911Z,4.97
2017-12-27T05:26:59.150Z,4.30
2017-12-27T05:29:27.386Z,4.53
2017-12-27T05:31:56.422Z,4.73
2017-12-27T05:34:24.671Z,4.70
2017-12-27T05:36:52.908Z,5.27
2017-12-27T05:39:21.234Z,4.83
2017-12-27T05:41:49.478Z,5.70
2017-12-27T05:44:17.938Z,6.63
2017-12-27T05:46:46.223Z,5.83
2017-12-27T05:49:14.472Z,5.67
2017-12-27T05:51:42.715Z,6.43
2017-12-27T05:54:10.987Z,7.67
2017-12-27T05:56:39.551Z,5.83
2017-12-27T05:59:08.570Z,5.03
2017-12-27T06:01:37.296Z,5.93
2017-12-27T06:04:05.534Z,6.80
2017-12-27T06:06:33.777Z,5.80
2017-12-27T06:09:02.050Z,4.93
2017-12-27T06:11:30.292Z,5.70
2017-12-27T06:13:58.538Z,5.47
2017-12-27T06:16:26.806Z,9.03
2017-12-27T06:18:58.930Z,6.30
2017-12-27T06:21:27.258Z,6.00
2017-12-27T06:23:55.507Z,6.17
2017-12-27T06:26:23.742Z,5.30
2017-12-27T06:28:52.015Z,6.30
2017-12-27T06:31:20.263Z,5.73
2017-12-27T06:33:49.266Z,5.47
2017-12-27T06:36:17.542Z,5.97
2017-12-27T06:38:45.785Z,6.67
2017-12-27T06:41:14.023Z,6.93
2017-12-27T06:43:42.525Z,6.57
2017-12-27T06:46:10.758Z,6.80
2017-12-27T06:48:39.002Z,6.23
2017-12-27T06:51:08.057Z,6.20
2017-12-27T06:53:36.283Z,7.80
2017-12-27T06:56:05.295Z,6.33
2017-12-27T06:58:36.111Z,6.73
2017-12-27T07:01:05.126Z,6.77
2017-12-27T07:03:33.366Z,6.37
2017-12-27T07:06:02.646Z,5.53
2017-12-27T07:08:30.890Z,6.00
2017-12-27T07:10:59.130Z,7.63
2017-12-27T07:13:27.402Z,6.80
2017-12-27T07:15:55.638Z,7.63
2017-12-27T07:18:23.882Z,6.57
2017-12-27T07:20:52.150Z,6.20
2017-12-27T07:23:20.395Z,5.60
2017-12-27T07:25:48.642Z,8.33
2017-12-27T07:28:17.274Z,5.97
2017-12-27T07:30:46.294Z,6.60
2017-12-27T07:33:14.542Z,6.27
2017-12-27T07:35:47.076Z,5.60
2017-12-27T07:38:15.318Z,7.93
2017-12-27T07:40:43.567Z,7.23
2017-12-27T07:43:12.594Z,8.73
2017-12-27T07:45:40.834Z,6.77
2017-12-27T07:48:09.999Z,7.00
2017-12-27T07:50:38.310Z,6.87
2017-12-27T07:53:07.310Z,7.80
2017-12-27T07:55:36.331Z,6.70
2017-12-27T07:58:04.611Z,6.90
2017-12-27T08:00:33.090Z,7.33
2017-12-27T08:03:01.330Z,8.30
2017-12-27T08:05:30.366Z,7.20
2017-12-27T08:07:58.678Z,7.07
2017-12-27T08:10:26.915Z,7.20
2017-12-27T08:12:55.426Z,8.40
2017-12-27T08:15:23.814Z,7.03
2017-12-27T08:17:52.055Z,7.53
2017-12-27T08:20:20.326Z,7.20
2017-12-27T08:22:48.566Z,7.63
2017-12-27T08:25:18.870Z,9.00
2017-12-27T08:27:47.138Z,11.03
2017-12-27T08:30:15.394Z,7.20
2017-12-27T08:32:43.630Z,9.00
2017-12-27T08:35:11.982Z,8.10
2017-12-27T08:37:40.346Z,7.83
2017-12-27T08:40:08.579Z,8.10
2017-12-27T08:42:37.616Z,7.50
2017-12-27T08:45:05.863Z,7.27
2017-12-27T08:47:34.110Z,8.27
2017-12-27T08:50:03.147Z,8.63
2017-12-27T08:52:31.382Z,7.70
2017-12-27T08:55:00.408Z,9.40
2017-12-27T08:57:28.722Z,9.30
2017-12-27T08:59:57.103Z,11.20
2017-12-27T09:02:25.826Z,8.00
2017-12-27T09:04:54.868Z,11.40
2017-12-27T09:07:23.106Z,8.53
2017-12-27T09:09:51.539Z,8.43
2017-12-27T09:12:19.807Z,8.13
2017-12-27T09:14:48.055Z,8.77
2017-12-27T09:17:16.359Z,8.90
2017-12-27T09:19:44.682Z,8.50
2017-12-27T09:22:13.682Z,8.23
2017-12-27T09:24:41.927Z,7.77
2017-12-27T09:27:10.186Z,11.30
2017-12-27T09:29:38.438Z,9.90
2017-12-27T09:32:06.674Z,9.07
2017-12-27T09:34:35.702Z,9.00
2017-12-27T09:37:03.952Z,9.03
2017-12-27T09:39:32.196Z,10.70
2017-12-27T09:42:00.975Z,10.03
2017-12-27T09:44:29.198Z,9.47
2017-12-27T09:46:58.458Z,10.23
2017-12-27T09:49:26.871Z,8.93
2017-12-27T09:52:01.097Z,9.30
2017-12-27T09:54:30.138Z,9.33
2017-12-27T09:57:00.646Z,8.90
2017-12-27T09:59:29.879Z,8.27
2017-12-27T10:01:58.451Z,13.10
2017-12-27T10:04:26.670Z,8.90
2017-12-27T10:06:54.914Z,11.00
2017-12-27T10:09:23.966Z,13.00
2017-12-27T10:11:52.206Z,8.57
2017-12-27T10:14:20.467Z,7.67
2017-12-27T10:16:48.726Z,7.70
2017-12-27T10:19:16.969Z,13.70
2017-12-27T10:21:45.214Z,8.70
2017-12-27T10:24:13.531Z,8.33
2017-12-27T10:26:41.775Z,9.50
2017-12-27T10:29:10.870Z,9.20
2017-12-27T10:31:39.906Z,7.93
2017-12-27T10:34:08.142Z,9.20
2017-12-27T10:36:37.154Z,9.13
2017-12-27T10:39:05.419Z,6.47
2017-12-27T10:41:34.251Z,8.37
2017-12-27T10:44:02.502Z,10.80
2017-12-27T10:46:30.882Z,7.70
2017-12-27T10:48:59.135Z,7.53
2017-12-27T10:51:27.370Z,9.57
2017-12-27T10:53:55.792Z,7.27
2017-12-27T10:56:24.810Z,11.40
2017-12-27T10:58:53.059Z,7.07
2017-12-27T11:01:21.331Z,9.70
2017-12-27T11:03:50.112Z,14.33
2017-12-27T11:06:18.586Z,15.37
2017-12-27T11:08:47.040Z,12.83
2017-12-27T11:11:15.334Z,6.37
2017-12-27T11:13:43.604Z,8.20
2017-12-27T11:16:11.996Z,7.93
2017-12-27T11:18:40.223Z,6.77
2017-12-27T11:21:08.467Z,5.87
2017-12-27T11:23:36.951Z,5.70
2017-12-27T11:26:06.330Z,9.60
2017-12-27T11:28:34.571Z,5.90
2017-12-27T11:31:03.331Z,8.10
2017-12-27T11:33:32.479Z,6.90
2017-12-27T11:36:00.699Z,5.17
2017-12-27T11:38:29.897Z,6.40
2017-12-27T11:40:58.645Z,9.23
2017-12-27T11:43:26.918Z,4.80
2017-12-27T11:45:55.188Z,6.13
2017-12-27T11:48:23.478Z,5.70
2017-12-27T11:50:51.747Z,8.27
2017-12-27T11:53:20.319Z,6.00
2017-12-27T11:55:48.815Z,4.80
2017-12-27T11:58:17.043Z,5.67
2017-12-27T12:00:46.390Z,6.53
2017-12-27T12:03:14.918Z,6.90
2017-12-27T12:05:43.483Z,6.90
2017-12-27T12:08:11.742Z,3.93
2017-12-27T12:10:41.061Z,10.60
2017-12-27T12:13:09.298Z,4.50
2017-12-27T12:15:37.890Z,6.70
2017-12-27T12:18:06.173Z,5.37
2017-12-27T12:20:34.422Z,5.87
2017-12-27T12:23:02.695Z,6.20
2017-12-27T12:25:31.051Z,14.73
2017-12-27T12:28:00.066Z,4.70
2017-12-27T12:30:28.326Z,5.70
2017-12-27T12:32:56.566Z,3.90
2017-12-27T12:35:24.814Z,7.30
2017-12-27T12:37:53.142Z,12.40
2017-12-27T12:40:21.393Z,8.30
2017-12-27T12:42:49.626Z,8.67
2017-12-27T12:45:17.902Z,6.87
2017-12-27T12:47:46.152Z,13.23
2017-12-27T12:50:15.159Z,7.03
2017-12-27T12:52:44.193Z,3.87
2017-12-27T12:55:12.679Z,4.10
2017-12-27T12:57:40.903Z,6.43
2017-12-27T13:00:10.043Z,10.20
2017-12-27T13:02:38.298Z,4.40
2017-12-27T13:05:06.678Z,8.63
2017-12-27T13:07:36.307Z,10.37
2017-12-27T13:10:04.550Z,5.57
2017-12-27T13:12:32.985Z,13.60
2017-12-27T13:15:01.259Z,11.80
2017-12-27T13:17:29.629Z,6.07
2017-12-27T13:19:57.883Z,6.60
2017-12-27T13:22:26.574Z,4.30
2017-12-27T13:24:55.077Z,8.80
2017-12-27T13:27:23.297Z,4.80
2017-12-27T13:29:52.344Z,10.00
2017-12-27T13:32:20.595Z,9.73
2017-12-27T13:34:48.836Z,13.77
2017-12-27T13:37:17.875Z,8.90
2017-12-27T13:39:46.119Z,5.17
2017-12-27T13:42:15.130Z,14.57
2017-12-27T13:44:43.551Z,7.23
2017-12-27T13:47:11.799Z,7.90
2017-12-27T13:49:40.211Z,7.67
2017-12-27T13:52:08.485Z,10.30
2017-12-27T13:54:36.722Z,6.70
2017-12-27T13:57:04.975Z,5.53
2017-12-27T13:59:33.239Z,5.00
2017-12-27T14:02:01.483Z,5.77
2017-12-27T14:04:29.870Z,4.60
2017-12-27T14:06:58.447Z,5.30
2017-12-27T14:09:26.670Z,4.53
2017-12-27T14:11:57.048Z,5.70
2017-12-27T14:14:25.424Z,7.67
2017-12-27T14:16:53.654Z,4.20
2017-12-27T14:19:22.694Z,6.80
2017-12-27T14:21:51.118Z,8.00
2017-12-27T14:24:19.363Z,6.90
2017-12-27T14:26:47.611Z,8.53
2017-12-27T14:29:15.928Z,6.30
2017-12-27T14:31:44.171Z,4.50
2017-12-27T14:34:12.414Z,12.23
2017-12-27T14:36:40.691Z,8.17
2017-12-27T14:39:09.833Z,9.17
2017-12-27T14:41:38.084Z,9.63
2017-12-27T14:44:06.346Z,8.23
2017-12-27T14:46:34.575Z,7.10
2017-12-27T14:49:02.819Z,5.93
2017-12-27T14:51:31.130Z,6.53
2017-12-27T14:53:59.370Z,7.73
2017-12-27T14:56:27.611Z,4.87
2017-12-27T14:58:55.882Z,6.60
2017-12-27T15:01:24.886Z,7.70
2017-12-27T15:03:58.070Z,6.67
2017-12-27T15:06:27.071Z,7.40
2017-12-27T15:08:58.482Z,9.87
2017-12-27T15:11:26.830Z,6.97
2017-12-27T15:13:55.069Z,8.47
2017-12-27T15:16:23.348Z,9.57
2017-12-27T15:18:51.626Z,7.10
2017-12-27T15:21:19.848Z,6.30
2017-12-27T15:23:48.086Z,7.07
2017-12-27T15:26:16.552Z,8.57
2017-12-27T15:28:45.556Z,9.10
2017-12-27T15:31:14.563Z,7.63
2017-12-27T15:33:43.279Z,5.60
2017-12-27T15:36:11.527Z,8.50
2017-12-27T15:38:39.954Z,6.23
2017-12-27T15:41:08.226Z,10.63
2017-12-27T15:43:36.461Z,7.80
2017-12-27T15:46:05.898Z,6.33
2017-12-27T15:48:34.158Z,17.93
2017-12-27T15:51:02.410Z,8.83
2017-12-27T15:53:30.846Z,8.03
2017-12-27T15:55:59.466Z,8.87
2017-12-27T15:58:27.801Z,9.93
2017-12-27T16:00:56.022Z,6.83
2017-12-27T16:03:25.059Z,7.67
2017-12-27T16:05:54.279Z,6.90
2017-12-27T16:08:22.514Z,7.43
2017-12-27T16:10:51.687Z,11.50
2017-12-27T16:13:20.703Z,8.20
2017-12-27T16:15:48.956Z,10.00
2017-12-27T16:18:17.289Z,13.93
2017-12-27T16:20:45.711Z,9.70
2017-12-27T16:23:14.126Z,11.63
2017-12-27T16:25:42.490Z,14.43
2017-12-27T16:28:10.719Z,15.73
2017-12-27T16:30:38.962Z,9.50
2017-12-27T16:33:08.385Z,10.10
2017-12-27T16:35:36.671Z,12.33
2017-12-27T16:38:05.858Z,10.20
2017-12-27T16:40:34.262Z,13.83
2017-12-27T16:43:03.042Z,17.20
2017-12-27T16:45:31.595Z,10.87
2017-12-27T16:47:59.870Z,16.00
2017-12-27T16:50:30.376Z,9.37
2017-12-27T16:52:59.378Z,10.93
2017-12-27T16:55:27.646Z,11.50
2017-12-27T16:57:57.465Z,13.43
2017-12-27T17:00:26.463Z,10.73
2017-12-27T17:02:54.794Z,11.37
2017-12-27T17:05:23.030Z,9.20
2017-12-27T17:07:51.286Z,12.67
2017-12-27T17:10:19.558Z,13.43
2017-12-27T17:12:48.567Z,11.60
2017-12-27T17:15:17.186Z,11.33
2017-12-27T17:17:46.528Z,10.40
2017-12-27T17:20:15.590Z,15.00
2017-12-27T17:22:43.895Z,14.43
2017-12-27T17:25:13.534Z,12.03
2017-12-27T17:27:41.855Z,11.33
2017-12-27T17:30:11.706Z,10.90
2017-12-27T17:32:40.344Z,12.40
2017-12-27T17:35:09.021Z,11.50
2017-12-27T17:37:37.918Z,11.67
2017-12-27T17:40:06.295Z,18.10
2017-12-27T17:42:35.406Z,9.63
2017-12-27T17:45:03.782Z,13.50
2017-12-27T17:47:32.230Z,13.83
2017-12-27T17:50:00.632Z,19.70
2017-12-27T17:52:28.965Z,14.70
2017-12-27T17:54:57.979Z,13.70
2017-12-27T17:57:26.677Z,9.10
2017-12-27T17:59:55.146Z,10.00
2017-12-27T18:02:23.660Z,8.13
2017-12-27T18:04:53.289Z,8.27
2017-12-27T18:07:21.938Z,8.47
2017-12-27T18:09:50.747Z,10.17
2017-12-27T18:12:19.075Z,12.43
2017-12-27T18:14:47.760Z,10.90
2017-12-27T18:17:16.102Z,11.53
2017-12-27T18:19:44.342Z,10.40
2017-12-27T18:22:12.775Z,10.47
2017-12-27T18:24:41.161Z,15.50
2017-12-27T18:27:09.602Z,17.90
2017-12-27T18:29:38.151Z,14.33
2017-12-27T18:32:06.927Z,16.93
2017-12-27T18:34:36.003Z,17.03
2017-12-27T18:37:04.622Z,15.00
2017-12-27T18:39:33.112Z,14.30
2017-12-27T18:42:01.612Z,15.03
2017-12-27T18:44:30.106Z,16.07
2017-12-27T18:46:58.454Z,14.60
2017-12-27T18:49:26.710Z,15.97
2017-12-27T18:51:55.722Z,14.27
2017-12-27T18:54:24.337Z,19.40
2017-12-27T18:56:53.578Z,20.17
2017-12-27T18:59:22.104Z,19.37
2017-12-27T19:01:50.378Z,16.60
2017-12-27T19:04:18.638Z,14.87
2017-12-27T19:06:47.178Z,16.03
2017-12-27T19:09:15.688Z,15.90
2017-12-27T19:11:43.938Z,18.63
2017-12-27T19:14:12.191Z,19.03
2017-12-27T19:16:40.819Z,16.83
2017-12-27T19:19:09.222Z,22.27
2017-12-27T19:21:37.470Z,17.67
2017-12-27T19:24:06.676Z,19.93
2017-12-27T19:26:34.914Z,19.23
2017-12-27T19:29:03.215Z,21.10
2017-12-27T19:31:32.272Z,18.37
2017-12-27T19:34:00.525Z,20.90
2017-12-27T19:36:29.064Z,21.20
2017-12-27T19:38:57.510Z,16.97
2017-12-27T19:41:26.074Z,17.60
2017-12-27T19:43:54.558Z,20.50
2017-12-27T19:46:23.027Z,22.77
2017-12-27T19:48:51.338Z,21.17
2017-12-27T19:51:20.346Z,22.67
2017-12-27T19:53:48.623Z,23.23
2017-12-27T19:56:16.874Z,20.60
2017-12-27T19:58:45.122Z,19.50
2017-12-27T20:01:13.476Z,20.60
2017-12-27T20:03:41.726Z,19.63
2017-12-27T20:06:10.093Z,19.67
2017-12-27T20:08:38.991Z,23.27
2017-12-27T20:11:07.392Z,24.53
2017-12-27T20:13:35.858Z,18.53
2017-12-27T20:16:04.656Z,17.53
2017-12-27T20:18:32.870Z,22.53
2017-12-27T20:21:01.312Z,19.40
2017-12-27T20:23:30.087Z,26.63
2017-12-27T20:25:58.483Z,22.23
2017-12-27T20:28:26.747Z,27.80
2017-12-27T20:30:55.077Z,20.40
2017-12-27T20:33:23.327Z,22.43
2017-12-27T20:35:51.578Z,21.37
2017-12-27T20:38:19.923Z,25.13
2017-12-27T20:40:48.338Z,22.70
2017-12-27T20:43:16.691Z,23.10
2017-12-27T20:45:45.289Z,25.07
2017-12-27T20:48:13.530Z,24.60
2017-12-27T20:50:41.945Z,19.77
2017-12-27T20:53:10.210Z,20.40
2017-12-27T20:55:38.558Z,20.07
2017-12-27T20:58:06.810Z,23.40
2017-12-27T21:00:35.223Z,27.60
2017-12-27T21:03:03.479Z,21.60
2017-12-27T21:05:32.498Z,21.30
2017-12-27T21:08:01.214Z,21.73
2017-12-27T21:10:29.458Z,20.00
2017-12-27T21:12:58.802Z,20.60
2017-12-27T21:15:27.080Z,19.70
2017-12-27T21:17:55.451Z,26.50
2017-12-27T21:20:24.254Z,18.90
2017-12-27T21:22:52.527Z,20.93
2017-12-27T21:25:20.790Z,19.73
2017-12-27T21:27:49.034Z,23.20
2017-12-27T21:30:17.882Z,20.30
2017-12-27T21:32:46.099Z,21.10
2017-12-27T21:35:14.358Z,21.47
2017-12-27T21:37:42.630Z,23.93
2017-12-27T21:40:11.647Z,22.67
2017-12-27T21:42:39.975Z,25.53
2017-12-27T21:45:08.252Z,20.20
2017-12-27T21:47:42.122Z,21.70
2017-12-27T21:50:10.764Z,24.27
2017-12-27T21:52:39.019Z,26.60
2017-12-27T21:55:07.271Z,23.07
2017-12-27T21:57:35.547Z,26.20
2017-12-27T22:00:09.564Z,20.80
2017-12-27T22:02:37.839Z,18.73
2017-12-27T22:05:06.175Z,25.50
2017-12-27T22:07:36.358Z,26.40
2017-12-27T22:10:04.706Z,23.50
2017-12-27T22:12:34.047Z,24.00
2017-12-27T22:15:02.291Z,22.37
2017-12-27T22:17:30.572Z,27.87
2017-12-27T22:19:58.824Z,22.57
2017-12-27T22:22:27.270Z,27.40
2017-12-27T22:24:56.314Z,21.37
2017-12-27T22:27:24.576Z,22.43
2017-12-27T22:29:52.869Z,19.57
2017-12-27T22:32:21.458Z,21.37
2017-12-27T22:34:49.758Z,24.63
2017-12-27T22:37:18.011Z,16.17
2017-12-27T22:39:46.323Z,13.67
2017-12-27T22:42:14.566Z,12.60
2017-12-27T22:44:42.823Z,11.57
2017-12-27T22:47:11.095Z,12.00
2017-12-27T22:49:39.350Z,12.60
2017-12-27T22:52:07.802Z,12.50
2017-12-27T22:54:36.562Z,11.10
2017-12-27T22:57:04.821Z,9.70
2017-12-27T22:59:33.070Z,10.10
2017-12-27T23:02:01.352Z,15.73
2017-12-27T23:04:30.370Z,11.83
2017-12-27T23:06:58.618Z,10.57
2017-12-27T23:09:26.898Z,11.83
2017-12-27T23:11:55.142Z,10.90
2017-12-27T23:14:23.394Z,11.43
2017-12-27T23:16:51.974Z,11.50
2017-12-27T23:19:20.234Z,12.50
2017-12-27T23:21:48.483Z,14.40
2017-12-27T23:24:17.139Z,17.07
2017-12-27T23:26:45.398Z,12.20
2017-12-27T23:29:13.646Z,16.60
2017-12-27T23:31:41.927Z,13.27
2017-12-27T23:34:10.178Z,12.80
2017-12-27T23:36:38.430Z,14.70
2017-12-27T23:39:07.083Z,14.97
2017-12-27T23:41:35.499Z,14.13
2017-12-27T23:44:03.749Z,17.40
2017-12-27T23:46:32.028Z,16.37
2017-12-27T23:49:00.276Z,16.90
2017-12-27T23:51:28.526Z,15.73
2017-12-27T23:53:56.805Z,10.80
2017-12-27T23:56:25.050Z,11.13
2017-12-27T23:58:53.298Z,8.47
